Seba Beach, Canada
Current Conditions -  °F | °C
As of 5:00 AM on Monday 22 Dec 2014 (Local Time) from CZVL Reporting Station
Clear Clear  
Wind Chill: 23°   Ceiling: Unl
Heat Index: 30°   Visibility: 9mi
Dew Point: 27°   Wind: 8mph
Humidity: 86%   Direction: 280°W
Pressure: 29.68"   Gusts: NA
Location:  53.57°N, 114.72°W
Report Text: CZVL 221200Z AUTO 28007KT 9SM CLR M01/M03 A2968 RMK SLP084
Loading
Personal Weather Stations






























Interactive Weather Map New forecast layout! Learn more

10-Day Weather Forecast

Advertisements
Track Severe Weather on mobile